Taholah, Washington
Current Conditions -  °F | °C
As of 3:53 AM on Saturday 25 Oct 2014 (Local Time) from KHQM Reporting Station
Overcast Overcast  
Wind Chill: 52°   Ceiling: 6500
Heat Index: 52°   Visibility: 9mi
Dew Point: 49°   Wind: 14mph
Humidity: 89%   Direction: 60°ENE
Pressure: 29.51"   Gusts: 21mph
Location:  47.35°N, 124.3°W
Report Text: KHQM 251053Z AUTO 06012G18KT 9SM SCT046 OVC065 11/09 A2951 RMK AO2 SLP997 T01110094
Loading
Personal Weather Stations






























Interactive Weather Map
Tropical Storm Tracking
New forecast layout! Learn more

10-Day Weather Forecast

Advertisements
Track Severe Weather on mobile